createdAt,value
2022-12-01T00:00:06.769Z,79.80
2022-12-01T00:05:08.526Z,79.53
2022-12-01T00:10:26.636Z,79.65
2022-12-01T00:15:30.736Z,79.60
2022-12-01T00:20:35.569Z,79.58
2022-12-01T00:25:37.039Z,79.45
2022-12-01T00:30:38.449Z,79.53
2022-12-01T00:35:39.857Z,79.66
2022-12-01T00:40:41.283Z,79.05
2022-12-01T00:45:43.205Z,78.58
2022-12-01T00:50:45.187Z,78.86
2022-12-01T00:55:46.755Z,79.15
2022-12-01T01:00:48.635Z,79.63
2022-12-01T01:05:50.122Z,79.32
2022-12-01T01:10:51.635Z,78.88
2022-12-01T01:16:22.780Z,78.74
2022-12-01T01:21:26.033Z,78.40
2022-12-01T01:26:32.694Z,78.53
2022-12-01T01:31:35.097Z,78.51
2022-12-01T01:36:36.516Z,78.26
2022-12-01T01:41:38.439Z,77.96
2022-12-01T01:46:39.857Z,78.28
2022-12-01T01:51:46.728Z,79.00
2022-12-01T01:56:51.055Z,78.88
2022-12-01T02:02:02.170Z,79.04
2022-12-01T02:07:05.378Z,79.40
2022-12-01T02:12:15.796Z,79.05
2022-12-01T02:17:29.195Z,79.15
2022-12-01T02:23:04.265Z,78.95
2022-12-01T02:28:30.194Z,78.71
2022-12-01T02:33:38.292Z,78.64
2022-12-01T02:38:51.546Z,78.81
2022-12-01T02:44:12.788Z,78.76
2022-12-01T02:49:19.927Z,78.55
2022-12-01T02:54:23.300Z,78.54
2022-12-01T02:59:24.821Z,78.81
2022-12-01T03:04:51.624Z,78.95
2022-12-01T03:10:17.290Z,78.74
2022-12-01T03:15:37.403Z,78.40
2022-12-01T03:20:59.091Z,77.99
2022-12-01T03:26:03.824Z,78.26
2022-12-01T03:31:10.510Z,77.71
2022-12-01T03:36:22.713Z,77.83
2022-12-01T03:41:30.721Z,78.01
2022-12-01T03:46:44.742Z,78.88
2022-12-01T03:52:00.960Z,78.81
2022-12-01T03:57:08.316Z,78.68
2022-12-01T04:02:09.879Z,79.00
2022-12-01T04:07:13.806Z,79.23
2022-12-01T04:12:30.199Z,78.77
2022-12-01T04:17:31.753Z,78.55
2022-12-01T04:22:33.814Z,78.27
2022-12-01T04:27:36.029Z,78.86
2022-12-01T04:32:39.833Z,78.69
2022-12-01T04:37:41.249Z,78.65
2022-12-01T04:42:42.723Z,78.91
2022-12-01T04:47:44.204Z,78.91
2022-12-01T04:52:46.602Z,79.44
2022-12-01T04:57:48.223Z,79.66
2022-12-01T05:02:49.641Z,78.75
2022-12-01T05:07:51.230Z,78.65
2022-12-01T05:12:52.860Z,79.58
2022-12-01T05:17:54.295Z,79.82
2022-12-01T05:23:08.095Z,80.02
2022-12-01T05:28:10.417Z,79.38
2022-12-01T05:33:11.913Z,80.10
2022-12-01T05:38:13.414Z,79.38
2022-12-01T05:43:14.846Z,80.41
2022-12-01T05:48:17.826Z,80.25
2022-12-01T05:53:20.045Z,80.49
2022-12-01T05:58:22.439Z,80.10
2022-12-01T06:03:23.941Z,80.29
2022-12-01T06:08:25.617Z,80.14
2022-12-01T06:13:27.120Z,80.51
2022-12-01T06:18:31.754Z,80.61
2022-12-01T06:23:33.583Z,80.40
2022-12-01T06:28:35.246Z,80.21
2022-12-01T06:33:36.667Z,80.49
2022-12-01T06:38:38.141Z,80.49
2022-12-01T06:43:39.565Z,80.05
2022-12-01T06:48:41.068Z,79.90
2022-12-01T06:53:42.487Z,79.32
2022-12-01T06:58:43.911Z,78.88
2022-12-01T07:03:52.067Z,78.77
2022-12-01T07:08:53.491Z,79.41
2022-12-01T07:13:56.714Z,79.57
2022-12-01T07:18:59.992Z,79.27
2022-12-01T07:24:01.478Z,79.59
2022-12-01T07:29:02.901Z,79.94
2022-12-01T07:34:05.117Z,78.81
2022-12-01T07:39:08.172Z,80.12
2022-12-01T07:44:10.714Z,79.38
2022-12-01T07:49:14.855Z,79.85
2022-12-01T07:54:17.622Z,79.87
2022-12-01T07:59:19.137Z,79.39
2022-12-01T08:04:20.562Z,79.43
2022-12-01T08:09:22.032Z,78.92
2022-12-01T08:14:23.507Z,78.91
2022-12-01T08:19:25.884Z,78.62
2022-12-01T08:24:27.553Z,78.55
2022-12-01T08:29:28.965Z,79.10
2022-12-01T08:34:30.401Z,78.55
2022-12-01T08:39:31.887Z,78.91
2022-12-01T08:44:33.406Z,79.25
2022-12-01T08:49:35.116Z,78.69
2022-12-01T08:54:36.540Z,79.17
2022-12-01T08:59:38.014Z,79.30
2022-12-01T09:04:39.467Z,79.10
2022-12-01T09:09:40.926Z,79.14
2022-12-01T09:14:49.522Z,79.26
2022-12-01T09:19:51.403Z,77.84
2022-12-01T09:24:53.103Z,78.04
2022-12-01T09:29:54.525Z,78.38
2022-12-01T09:34:55.931Z,78.86
2022-12-01T09:39:57.339Z,78.54
2022-12-01T09:45:02.647Z,78.44
2022-12-01T09:50:11.780Z,78.50
2022-12-01T09:55:16.216Z,78.34
2022-12-01T10:00:21.648Z,78.40
2022-12-01T10:05:26.671Z,78.52
2022-12-01T10:10:36.444Z,77.97
2022-12-01T10:15:47.210Z,79.01
2022-12-01T10:21:00.387Z,78.82
2022-12-01T10:26:14.108Z,78.83
2022-12-01T10:31:20.912Z,79.17
2022-12-01T10:36:23.304Z,78.79
2022-12-01T10:41:27.946Z,79.46
2022-12-01T10:46:47.451Z,79.31
2022-12-01T10:51:51.741Z,77.98
2022-12-01T10:56:56.809Z,77.94
2022-12-01T11:02:00.470Z,78.48
2022-12-01T11:07:03.330Z,78.59
2022-12-01T11:12:05.070Z,78.45
2022-12-01T11:17:31.346Z,77.97
2022-12-01T11:22:33.278Z,77.25
2022-12-01T11:27:49.420Z,77.88
2022-12-01T11:32:55.163Z,77.88
2022-12-01T11:38:28.388Z,77.45
2022-12-01T11:43:21.316Z,76.91
2022-12-01T11:48:26.791Z,77.68
2022-12-01T11:53:34.624Z,78.69
2022-12-01T11:58:36.255Z,76.82
2022-12-01T12:03:51.095Z,77.49
2022-12-01T12:09:04.755Z,76.86
2022-12-01T12:14:29.906Z,77.68
2022-12-01T12:25:44.229Z,77.19
2022-12-01T12:31:26.759Z,76.44
2022-12-01T12:36:50.063Z,77.51
2022-12-01T12:41:56.285Z,76.92
2022-12-01T12:47:00.569Z,77.07
2022-12-01T12:52:08.861Z,76.04
2022-12-01T12:57:45.716Z,76.60
2022-12-01T13:03:17.127Z,77.46
2022-12-01T13:08:28.548Z,76.09
2022-12-01T13:13:48.278Z,76.29
2022-12-01T13:18:55.091Z,76.39
2022-12-01T13:23:57.044Z,76.34
2022-12-01T13:28:58.787Z,76.20
2022-12-01T13:34:03.439Z,76.83
2022-12-01T13:39:17.172Z,76.35
2022-12-01T13:44:25.678Z,75.29
2022-12-01T13:49:53.771Z,76.23
2022-12-01T13:55:12.335Z,76.22
2022-12-01T14:00:27.831Z,76.87
2022-12-01T14:05:54.990Z,76.99
2022-12-01T14:11:05.338Z,76.26
2022-12-01T14:16:08.187Z,76.72
2022-12-01T14:21:12.409Z,76.46
2022-12-01T14:26:16.114Z,76.06
2022-12-01T14:31:17.641Z,76.08
2022-12-01T14:36:37.585Z,76.76
2022-12-01T14:41:52.832Z,76.23
2022-12-01T14:47:32.510Z,76.27
2022-12-01T14:52:38.589Z,76.56
2022-12-01T14:57:45.690Z,76.40
2022-12-01T15:02:52.835Z,76.30
2022-12-01T15:08:18.626Z,76.48
2022-12-01T15:13:30.807Z,76.41
2022-12-01T15:18:36.897Z,76.47
2022-12-01T15:24:03.110Z,76.40
2022-12-01T15:29:45.520Z,75.15
2022-12-01T15:34:50.766Z,76.49
2022-12-01T15:40:43.115Z,76.37
2022-12-01T15:45:22.508Z,76.45
2022-12-01T15:50:33.575Z,76.99
2022-12-01T15:55:37.577Z,76.93
2022-12-01T16:00:39.127Z,76.19
2022-12-01T16:05:44.158Z,76.97
2022-12-01T16:10:46.048Z,76.47
2022-12-01T16:15:47.454Z,76.56
2022-12-01T16:20:50.108Z,76.77
2022-12-01T16:25:51.849Z,76.41
2022-12-01T16:30:53.948Z,76.49
2022-12-01T16:35:55.629Z,77.22
2022-12-01T16:40:59.907Z,77.02
2022-12-01T16:46:03.602Z,77.10
2022-12-01T16:51:07.750Z,76.77
2022-12-01T16:56:12.630Z,77.59
2022-12-01T17:01:14.234Z,77.07
2022-12-01T17:06:18.138Z,76.66
2022-12-01T17:11:19.700Z,77.67
2022-12-01T17:16:21.258Z,77.93
2022-12-01T17:21:22.728Z,77.92
2022-12-01T17:26:24.250Z,77.79
2022-12-01T17:31:25.749Z,76.98
2022-12-01T17:36:27.263Z,77.21
2022-12-01T17:41:32.532Z,77.71
2022-12-01T17:46:34.166Z,76.92
2022-12-01T17:51:36.689Z,76.81
2022-12-01T17:56:38.115Z,76.32
2022-12-01T18:01:41.168Z,75.60
2022-12-01T18:06:42.986Z,75.55
2022-12-01T18:11:44.501Z,76.15
2022-12-01T18:16:45.927Z,74.92
2022-12-01T18:21:47.701Z,76.21
2022-12-01T18:26:49.173Z,75.35
2022-12-01T18:31:52.575Z,75.39
2022-12-01T18:36:54.028Z,74.85
2022-12-01T18:41:55.459Z,75.01
2022-12-01T18:46:57.777Z,75.03
2022-12-01T18:52:00.317Z,74.04
2022-12-01T18:57:01.733Z,74.81
2022-12-01T19:02:03.269Z,74.18
2022-12-01T19:07:04.735Z,75.04
2022-12-01T19:12:06.567Z,74.63
2022-12-01T19:17:08.053Z,75.27
2022-12-01T19:22:09.483Z,74.93
2022-12-01T19:27:10.924Z,75.09
2022-12-01T19:32:12.364Z,74.41
2022-12-01T19:37:13.894Z,74.41
2022-12-01T19:42:15.340Z,73.62
2022-12-01T19:47:21.948Z,74.37
2022-12-01T19:52:23.939Z,73.32
2022-12-01T19:57:25.402Z,73.70
2022-12-01T20:02:29.375Z,72.99
2022-12-01T20:07:31.116Z,74.00
2022-12-01T20:12:34.493Z,74.06
2022-12-01T20:17:37.868Z,73.82
2022-12-01T20:22:39.589Z,74.72
2022-12-01T20:27:42.312Z,74.04
2022-12-01T20:32:43.767Z,74.88
2022-12-01T20:37:45.261Z,73.60
2022-12-01T20:42:46.692Z,74.18
2022-12-01T20:47:48.123Z,73.58
2022-12-01T20:52:49.618Z,74.05
2022-12-01T20:57:51.399Z,73.33
2022-12-01T21:02:52.957Z,72.79
2022-12-01T21:07:54.732Z,72.85
2022-12-01T21:13:18.824Z,74.34
2022-12-01T21:18:22.629Z,74.31
2022-12-01T21:23:27.002Z,74.71
2022-12-01T21:28:29.670Z,73.99
2022-12-01T21:33:33.111Z,73.69
2022-12-01T21:38:34.586Z,74.24
2022-12-01T21:43:38.411Z,74.47
2022-12-01T21:48:40.574Z,73.31
2022-12-01T21:53:42.049Z,73.95
2022-12-01T21:58:43.917Z,74.02
2022-12-01T22:03:47.769Z,73.99
2022-12-01T22:08:54.860Z,74.18
2022-12-01T22:13:59.288Z,74.46
2022-12-01T22:19:15.800Z,74.64
2022-12-01T22:24:20.514Z,74.37
2022-12-01T22:29:35.926Z,75.13
2022-12-01T22:34:38.112Z,74.36
2022-12-01T22:39:40.135Z,74.61
2022-12-01T22:44:44.919Z,74.48
2022-12-01T22:49:46.396Z,74.31
2022-12-01T22:54:50.135Z,74.77
2022-12-01T22:59:52.154Z,74.49
2022-12-01T23:04:59.825Z,73.92
2022-12-01T23:10:12.047Z,74.66
2022-12-01T23:15:24.270Z,74.68
2022-12-01T23:20:32.279Z,74.33
2022-12-01T23:25:35.158Z,75.44
2022-12-01T23:30:39.244Z,74.47
2022-12-01T23:35:57.872Z,74.66
2022-12-01T23:41:01.705Z,74.88
2022-12-01T23:46:05.962Z,75.37
2022-12-01T23:51:19.749Z,75.35
2022-12-01T23:56:24.314Z,74.00
